createdAt,value
2019-01-02T00:00:19.056Z,951.32
2019-01-02T00:01:27.134Z,951.37
2019-01-02T00:02:35.177Z,951.35
2019-01-02T00:03:43.321Z,951.34
2019-01-02T00:04:51.292Z,951.42
2019-01-02T00:05:59.354Z,951.38
2019-01-02T00:07:07.413Z,951.43
2019-01-02T00:08:15.545Z,951.52
2019-01-02T00:09:23.515Z,951.42
2019-01-02T00:10:31.584Z,951.41
2019-01-02T00:11:39.655Z,951.36
2019-01-02T00:12:47.703Z,951.41
2019-01-02T00:13:55.859Z,951.48
2019-01-02T00:15:03.804Z,951.51
2019-01-02T00:16:11.865Z,951.51
2019-01-02T00:17:20.094Z,951.46
2019-01-02T00:18:28.103Z,951.45
2019-01-02T00:19:36.133Z,951.54
2019-01-02T00:20:44.097Z,951.57
2019-01-02T00:21:52.158Z,951.42
2019-01-02T00:23:00.219Z,951.49
2019-01-02T00:24:08.273Z,951.49
2019-01-02T00:25:16.430Z,951.46
2019-01-02T00:26:24.392Z,951.49
2019-01-02T00:27:32.447Z,951.44
2019-01-02T00:28:40.490Z,951.42
2019-01-02T00:29:48.565Z,951.42
2019-01-02T00:30:56.718Z,951.47
2019-01-02T00:32:04.685Z,951.42
2019-01-02T00:33:12.741Z,951.47
2019-01-02T00:34:20.871Z,951.35
2019-01-02T00:35:28.851Z,951.33
2019-01-02T00:36:36.990Z,951.37
2019-01-02T00:37:44.970Z,951.35
2019-01-02T00:38:53.073Z,951.32
2019-01-02T00:40:01.079Z,951.34
2019-01-02T00:41:09.137Z,951.31
2019-01-02T00:42:17.272Z,951.29
2019-01-02T00:43:25.244Z,951.34
2019-01-02T00:44:33.305Z,951.31
2019-01-02T00:45:41.389Z,951.32
2019-01-02T00:46:49.409Z,951.29
2019-01-02T00:47:57.538Z,951.23
2019-01-02T00:49:05.544Z,951.23
2019-01-02T00:50:13.684Z,951.21
2019-01-02T00:51:21.647Z,951.30
2019-01-02T00:52:29.792Z,951.34
2019-01-02T00:53:37.757Z,951.31
2019-01-02T00:54:45.846Z,951.35
2019-01-02T00:55:53.883Z,951.33
2019-01-02T00:57:01.942Z,951.38
2019-01-02T00:58:10.089Z,951.43
2019-01-02T00:59:18.059Z,951.44
2019-01-02T01:00:26.114Z,951.42
2019-01-02T01:01:34.176Z,951.41
2019-01-02T01:02:42.221Z,951.38
2019-01-02T01:03:50.304Z,951.38
2019-01-02T01:04:58.351Z,951.42
2019-01-02T01:06:06.489Z,951.42
2019-01-02T01:07:14.455Z,951.44
2019-01-02T01:08:22.611Z,951.44
2019-01-02T01:09:30.573Z,951.41
2019-01-02T01:10:38.618Z,951.47
2019-01-02T01:11:46.713Z,951.43
2019-01-02T01:12:54.740Z,951.53
2019-01-02T01:14:02.884Z,951.51
2019-01-02T01:15:10.845Z,951.55
2019-01-02T01:16:18.889Z,951.55
2019-01-02T01:17:26.948Z,951.57
2019-01-02T01:18:35.027Z,951.63
2019-01-02T01:19:43.170Z,951.67
2019-01-02T01:20:51.131Z,951.72
2019-01-02T01:21:59.283Z,951.71
2019-01-02T01:23:07.255Z,951.67
2019-01-02T01:24:15.315Z,951.63
2019-01-02T01:25:23.464Z,951.62
2019-01-02T01:26:31.435Z,951.59
2019-01-02T01:27:39.482Z,951.55
2019-01-02T01:28:47.552Z,951.57
2019-01-02T01:29:55.606Z,951.54
2019-01-02T01:31:03.753Z,951.61
2019-01-02T01:32:11.713Z,951.67
2019-01-02T01:33:19.775Z,951.53
2019-01-02T01:34:27.816Z,951.57
2019-01-02T01:35:35.886Z,951.56
2019-01-02T01:36:44.059Z,951.54
2019-01-02T01:37:52.087Z,951.62
2019-01-02T01:39:00.048Z,951.66
2019-01-02T01:40:08.115Z,951.76
2019-01-02T01:41:16.177Z,951.84
2019-01-02T01:42:24.329Z,951.88
2019-01-02T01:43:32.298Z,951.86
2019-01-02T01:44:40.337Z,951.83
2019-01-02T01:45:48.405Z,951.85
2019-01-02T01:46:56.474Z,951.84
2019-01-02T01:48:04.603Z,951.86
2019-01-02T01:49:12.609Z,951.81
2019-01-02T01:50:20.613Z,951.90
2019-01-02T01:51:28.686Z,951.86
2019-01-02T01:52:36.838Z,951.83
2019-01-02T01:53:44.814Z,951.88
2019-01-02T01:54:52.859Z,951.91
2019-01-02T01:56:00.889Z,951.95
2019-01-02T01:57:08.954Z,951.96
2019-01-02T01:58:17.114Z,952.03
2019-01-02T01:59:25.080Z,951.99
2019-01-02T02:00:33.152Z,951.96
2019-01-02T02:01:41.173Z,951.92
2019-01-02T02:02:49.250Z,951.90
2019-01-02T02:03:57.550Z,951.94
2019-01-02T02:05:05.362Z,951.96
2019-01-02T02:06:13.427Z,952.01
2019-01-02T02:07:21.482Z,951.90
2019-01-02T02:08:29.549Z,951.87
2019-01-02T02:09:37.699Z,951.86
2019-01-02T02:10:45.660Z,951.87
2019-01-02T02:11:53.712Z,951.83
2019-01-02T02:13:01.790Z,951.92
2019-01-02T02:14:09.824Z,951.88
2019-01-02T02:15:17.979Z,951.92
2019-01-02T02:16:25.936Z,951.92
2019-01-02T02:17:33.992Z,952.00
2019-01-02T02:18:42.065Z,951.93
2019-01-02T02:19:50.121Z,951.90
2019-01-02T02:20:58.276Z,951.86
2019-01-02T02:22:06.233Z,951.82
2019-01-02T02:23:14.378Z,951.80
2019-01-02T02:24:22.345Z,951.74
2019-01-02T02:25:30.406Z,951.71
2019-01-02T02:26:38.561Z,951.67
2019-01-02T02:27:46.516Z,951.67
2019-01-02T02:28:54.565Z,951.64
2019-01-02T02:30:02.613Z,951.69
2019-01-02T02:31:10.675Z,951.71
2019-01-02T02:32:18.856Z,951.81
2019-01-02T02:33:26.805Z,951.87
2019-01-02T02:34:34.847Z,951.85
2019-01-02T02:35:42.908Z,951.86
2019-01-02T02:36:50.946Z,951.86
2019-01-02T02:37:59.118Z,951.87
2019-01-02T02:39:07.090Z,951.85
2019-01-02T02:40:15.145Z,951.83
2019-01-02T02:41:23.194Z,951.85
2019-01-02T02:42:31.327Z,951.83
2019-01-02T02:43:39.312Z,951.85
2019-01-02T02:44:47.387Z,951.81
2019-01-02T02:45:55.431Z,951.79
2019-01-02T02:47:03.486Z,951.80
2019-01-02T02:48:11.638Z,951.76
2019-01-02T02:49:19.638Z,951.78
2019-01-02T02:50:27.647Z,951.76
2019-01-02T02:51:35.710Z,951.80
2019-01-02T02:52:43.878Z,951.79
2019-01-02T02:53:51.824Z,951.77
2019-01-02T02:54:59.882Z,951.73
2019-01-02T02:56:07.928Z,951.75
2019-01-02T02:57:15.994Z,951.75
2019-01-02T02:58:24.135Z,951.73
2019-01-02T02:59:32.111Z,951.72
2019-01-02T03:00:40.167Z,951.76
2019-01-02T03:01:48.215Z,951.80
2019-01-02T03:02:56.270Z,951.81
2019-01-02T03:04:04.435Z,951.79
2019-01-02T03:05:12.394Z,951.76
2019-01-02T03:06:20.622Z,951.75
2019-01-02T03:07:28.595Z,951.77
2019-01-02T03:08:36.556Z,951.80
2019-01-02T03:09:44.744Z,951.83
2019-01-02T03:10:52.677Z,951.89
2019-01-02T03:12:00.733Z,951.88
2019-01-02T03:13:08.806Z,951.86
2019-01-02T03:14:16.854Z,951.71
2019-01-02T03:15:24.999Z,951.79
2019-01-02T03:16:32.956Z,951.83
2019-01-02T03:17:41.012Z,951.87
2019-01-02T03:18:49.078Z,951.84
2019-01-02T03:19:57.132Z,951.93
2019-01-02T03:21:05.294Z,951.97
2019-01-02T03:22:13.277Z,952.00
2019-01-02T03:23:21.399Z,952.05
2019-01-02T03:24:29.369Z,951.98
2019-01-02T03:25:37.409Z,952.01
2019-01-02T03:26:45.522Z,952.00
2019-01-02T03:27:53.524Z,951.98
2019-01-02T03:29:01.587Z,951.93
2019-01-02T03:30:09.649Z,952.00
2019-01-02T03:31:17.706Z,951.99
2019-01-02T03:32:25.856Z,952.02
2019-01-02T03:33:33.823Z,952.01
2019-01-02T03:34:41.910Z,952.03
2019-01-02T03:35:49.920Z,952.04
2019-01-02T03:36:57.988Z,952.05
2019-01-02T03:38:06.134Z,952.07
2019-01-02T03:39:14.083Z,952.10
2019-01-02T03:40:22.167Z,952.10
2019-01-02T03:41:30.219Z,952.14
2019-01-02T03:42:38.371Z,952.11
2019-01-02T03:43:46.309Z,952.17
2019-01-02T03:44:54.400Z,952.16
2019-01-02T03:46:02.450Z,952.15
2019-01-02T03:47:10.525Z,952.10
2019-01-02T03:48:18.605Z,952.13
2019-01-02T03:49:26.621Z,952.11
2019-01-02T03:50:34.669Z,952.14
2019-01-02T03:51:42.726Z,952.17
2019-01-02T03:52:50.856Z,952.20
2019-01-02T03:53:58.847Z,952.24
2019-01-02T03:55:06.885Z,952.14
2019-01-02T03:56:14.947Z,952.21
2019-01-02T03:57:23.007Z,952.20
2019-01-02T03:58:31.087Z,952.20
2019-01-02T03:59:39.107Z,952.24
2019-01-02T04:00:47.180Z,952.26
2019-01-02T04:01:55.217Z,952.26
2019-01-02T04:03:03.295Z,952.25
2019-01-02T04:04:11.418Z,952.23
2019-01-02T04:05:19.519Z,952.21
2019-01-02T04:06:27.473Z,952.15
2019-01-02T04:07:35.508Z,952.14
2019-01-02T04:08:43.682Z,952.16
2019-01-02T04:09:51.716Z,952.15
2019-01-02T04:10:59.676Z,952.21
2019-01-02T04:12:07.749Z,952.24
2019-01-02T04:13:15.788Z,952.22
2019-01-02T04:14:23.838Z,952.18
2019-01-02T04:15:32.002Z,952.12
2019-01-02T04:16:39.957Z,952.09
2019-01-02T04:17:48.016Z,952.07
2019-01-02T04:18:56.076Z,952.03
2019-01-02T04:20:04.127Z,951.97
2019-01-02T04:21:12.277Z,951.94
2019-01-02T04:22:20.313Z,951.98
2019-01-02T04:23:28.292Z,951.99
2019-01-02T04:24:36.446Z,952.02
2019-01-02T04:25:44.414Z,952.04
2019-01-02T04:26:52.554Z,952.04
2019-01-02T04:28:00.519Z,952.03
2019-01-02T04:29:08.577Z,952.03
2019-01-02T04:30:16.634Z,952.06
2019-01-02T04:31:24.697Z,952.07
2019-01-02T04:32:32.824Z,952.04
2019-01-02T04:33:40.777Z,951.99
2019-01-02T04:34:48.831Z,952.02
2019-01-02T04:35:56.905Z,952.05
2019-01-02T04:37:04.964Z,952.05
2019-01-02T04:38:13.119Z,952.03
2019-01-02T04:39:21.076Z,952.01
2019-01-02T04:40:29.214Z,952.03
2019-01-02T04:41:37.190Z,952.02
2019-01-02T04:42:45.339Z,952.02
2019-01-02T04:43:53.326Z,952.05
2019-01-02T04:45:01.327Z,952.08
2019-01-02T04:46:09.407Z,952.02
2019-01-02T04:47:17.478Z,952.09
2019-01-02T04:48:25.610Z,952.16
2019-01-02T04:49:33.582Z,952.23
2019-01-02T04:50:41.678Z,952.21
2019-01-02T04:51:49.699Z,952.18
2019-01-02T04:52:57.746Z,952.16
2019-01-02T04:54:05.893Z,952.13
2019-01-02T04:55:13.899Z,952.18
2019-01-02T04:56:22.011Z,952.21
2019-01-02T04:57:29.958Z,952.21
2019-01-02T04:58:38.019Z,952.24
2019-01-02T04:59:46.178Z,952.27
2019-01-02T05:00:54.145Z,952.28
2019-01-02T05:02:02.211Z,952.30
2019-01-02T05:03:10.261Z,952.32
2019-01-02T05:04:18.320Z,952.27
2019-01-02T05:05:26.448Z,952.25
2019-01-02T05:06:34.425Z,952.23
2019-01-02T05:07:42.480Z,952.22
2019-01-02T05:08:50.509Z,952.20
2019-01-02T05:09:58.605Z,952.25
2019-01-02T05:11:06.747Z,952.30
2019-01-02T05:12:14.789Z,952.26
2019-01-02T05:13:22.752Z,952.27
2019-01-02T05:14:30.790Z,952.25
2019-01-02T05:15:38.861Z,952.29
2019-01-02T05:16:47.036Z,952.28
2019-01-02T05:17:55.003Z,952.30
2019-01-02T05:19:03.037Z,952.27
2019-01-02T05:20:11.067Z,952.32
2019-01-02T05:21:19.154Z,952.33
2019-01-02T05:22:27.295Z,952.43
2019-01-02T05:23:35.275Z,952.39
2019-01-02T05:24:43.325Z,952.39
2019-01-02T05:25:51.346Z,952.38
2019-01-02T05:26:59.424Z,952.42
2019-01-02T05:28:07.599Z,952.45
2019-01-02T05:29:15.538Z,952.38
2019-01-02T05:30:23.613Z,952.46
2019-01-02T05:31:31.649Z,952.46
2019-01-02T05:32:39.801Z,952.46
2019-01-02T05:33:47.760Z,952.53
2019-01-02T05:34:55.804Z,952.47
2019-01-02T05:36:03.873Z,952.56
2019-01-02T05:37:11.918Z,952.54
2019-01-02T05:38:20.662Z,952.56
2019-01-02T05:39:28.038Z,952.55
2019-01-02T05:40:36.137Z,952.60
2019-01-02T05:41:44.166Z,952.64
2019-01-02T05:42:52.312Z,952.55
2019-01-02T05:44:00.259Z,952.60
2019-01-02T05:45:08.314Z,952.67
2019-01-02T05:46:16.374Z,952.67
2019-01-02T05:47:24.431Z,952.65
2019-01-02T05:48:32.863Z,952.68
2019-01-02T05:49:40.528Z,952.68
2019-01-02T05:50:48.609Z,952.64
2019-01-02T05:51:56.671Z,952.71
2019-01-02T05:53:04.706Z,952.79
2019-01-02T05:54:12.861Z,952.80
2019-01-02T05:55:20.813Z,952.82
2019-01-02T05:56:28.878Z,952.75
2019-01-02T05:57:37.019Z,952.77
2019-01-02T05:58:44.977Z,952.79
2019-01-02T05:59:53.141Z,952.80
2019-01-02T06:01:01.081Z,952.83
2019-01-02T06:02:09.134Z,952.79
2019-01-02T06:03:17.204Z,952.77
2019-01-02T06:04:25.250Z,952.79
2019-01-02T06:05:33.413Z,952.82
2019-01-02T06:06:41.355Z,952.79
2019-01-02T06:07:49.416Z,952.79
2019-01-02T06:08:57.478Z,952.85
2019-01-02T06:10:05.523Z,952.80
2019-01-02T06:11:13.688Z,952.84
2019-01-02T06:12:21.630Z,952.87
2019-01-02T06:13:29.705Z,952.91
2019-01-02T06:14:37.752Z,952.97
2019-01-02T06:15:45.809Z,952.97
2019-01-02T06:16:54.781Z,952.95
2019-01-02T06:18:01.927Z,952.92
2019-01-02T06:19:10.013Z,952.84
2019-01-02T06:20:18.042Z,952.88
2019-01-02T06:21:26.079Z,952.81
2019-01-02T06:22:34.232Z,952.89
2019-01-02T06:23:42.203Z,952.88
2019-01-02T06:24:50.252Z,952.87
2019-01-02T06:25:58.308Z,952.84
2019-01-02T06:27:06.361Z,952.89
2019-01-02T06:28:14.513Z,952.95
2019-01-02T06:29:22.475Z,952.98
2019-01-02T06:30:30.517Z,952.97
2019-01-02T06:31:38.592Z,952.96
2019-01-02T06:32:46.713Z,952.90
2019-01-02T06:33:54.690Z,952.90
2019-01-02T06:35:02.740Z,952.94
2019-01-02T06:36:10.776Z,952.90
2019-01-02T06:37:18.849Z,952.88
2019-01-02T06:38:27.004Z,952.87
2019-01-02T06:39:34.970Z,952.90
2019-01-02T06:40:43.026Z,952.92
2019-01-02T06:41:51.051Z,952.98
2019-01-02T06:42:59.222Z,952.94
2019-01-02T06:44:07.335Z,953.02
2019-01-02T06:45:15.245Z,953.07
2019-01-02T06:46:23.288Z,953.03
2019-01-02T06:47:31.392Z,952.97
2019-01-02T06:48:39.409Z,952.99
2019-01-02T06:49:47.450Z,953.04
2019-01-02T06:50:55.517Z,953.00
2019-01-02T06:52:03.572Z,953.07
2019-01-02T06:53:11.721Z,952.99
2019-01-02T06:54:19.676Z,953.04
2019-01-02T06:55:27.720Z,952.98
2019-01-02T06:56:35.795Z,953.01
2019-01-02T06:57:43.830Z,953.03
2019-01-02T06:58:52.617Z,953.07
2019-01-02T06:59:59.952Z,953.10
2019-01-02T07:01:08.016Z,953.13
2019-01-02T07:02:16.068Z,953.11
2019-01-02T07:03:24.123Z,953.09
2019-01-02T07:04:32.264Z,953.05
2019-01-02T07:05:40.240Z,953.01
2019-01-02T07:06:48.297Z,953.00
2019-01-02T07:07:56.362Z,953.01
2019-01-02T07:09:04.405Z,953.04
2019-01-02T07:10:12.560Z,953.12
2019-01-02T07:11:20.501Z,953.08
2019-01-02T07:12:28.574Z,953.11
2019-01-02T07:13:36.627Z,953.09
2019-01-02T07:14:44.755Z,953.09
2019-01-02T07:15:52.820Z,953.05
2019-01-02T07:17:00.758Z,953.07
2019-01-02T07:18:08.830Z,953.09
2019-01-02T07:19:16.900Z,953.07
2019-01-02T07:20:24.952Z,953.03
2019-01-02T07:21:33.101Z,953.06
2019-01-02T07:22:41.067Z,953.02
2019-01-02T07:23:49.115Z,952.99
2019-01-02T07:24:57.167Z,953.05
2019-01-02T07:26:05.219Z,953.07
2019-01-02T07:27:13.378Z,953.05
2019-01-02T07:28:21.305Z,953.07
2019-01-02T07:29:29.380Z,953.09
2019-01-02T07:30:37.547Z,953.11
2019-01-02T07:31:45.513Z,953.17
2019-01-02T07:32:53.653Z,953.15
2019-01-02T07:34:01.619Z,953.18
2019-01-02T07:35:09.653Z,953.30
2019-01-02T07:36:17.713Z,953.25
2019-01-02T07:37:26.967Z,953.34
2019-01-02T07:38:33.839Z,953.39
2019-01-02T07:39:41.892Z,953.42
2019-01-02T07:40:49.923Z,953.39
2019-01-02T07:41:58.026Z,953.44
2019-01-02T07:43:06.140Z,953.43
2019-01-02T07:44:14.097Z,953.43
2019-01-02T07:45:22.148Z,953.50
2019-01-02T07:46:30.317Z,953.50
2019-01-02T07:47:38.360Z,953.57
2019-01-02T07:48:46.351Z,953.53
2019-01-02T07:49:54.380Z,953.57
2019-01-02T07:51:02.428Z,953.53
2019-01-02T07:52:10.470Z,953.56
2019-01-02T07:53:18.646Z,953.55
2019-01-02T07:54:26.606Z,953.51
2019-01-02T07:55:34.656Z,953.53
2019-01-02T07:56:42.710Z,953.54
2019-01-02T07:57:50.839Z,953.49
2019-01-02T07:58:58.811Z,953.51
2019-01-02T08:00:06.866Z,953.51
2019-01-02T08:01:14.946Z,953.48
2019-01-02T08:02:23.078Z,953.55
2019-01-02T08:03:31.022Z,953.58
2019-01-02T08:04:39.115Z,953.57
2019-01-02T08:05:47.152Z,953.54
2019-01-02T08:06:55.212Z,953.52
2019-01-02T08:08:03.349Z,953.59
2019-01-02T08:09:11.298Z,953.63
2019-01-02T08:10:19.377Z,953.70
2019-01-02T08:11:27.443Z,953.68
2019-01-02T08:12:35.489Z,953.62
2019-01-02T08:13:43.632Z,953.64
2019-01-02T08:14:51.598Z,953.76
2019-01-02T08:15:59.641Z,953.75
2019-01-02T08:17:07.686Z,953.80
2019-01-02T08:18:15.843Z,953.78
2019-01-02T08:19:23.918Z,953.82
2019-01-02T08:20:31.865Z,953.86
2019-01-02T08:21:39.966Z,953.83
2019-01-02T08:22:47.961Z,953.85
2019-01-02T08:23:56.027Z,953.86
2019-01-02T08:25:04.180Z,953.86
2019-01-02T08:26:13.170Z,953.86
2019-01-02T08:27:20.210Z,953.88
2019-01-02T08:28:28.283Z,953.91
2019-01-02T08:29:36.299Z,953.92
2019-01-02T08:30:44.458Z,953.93
2019-01-02T08:31:52.419Z,953.88
2019-01-02T08:33:00.604Z,953.87
2019-01-02T08:34:08.531Z,953.88
2019-01-02T08:35:16.583Z,953.87
2019-01-02T08:36:24.746Z,953.83
2019-01-02T08:37:32.700Z,953.89
2019-01-02T08:38:40.729Z,953.85
2019-01-02T08:39:48.803Z,953.83
2019-01-02T08:40:56.854Z,953.82
2019-01-02T08:42:05.031Z,953.78
2019-01-02T08:43:12.986Z,953.80
2019-01-02T08:44:21.006Z,953.87
2019-01-02T08:45:29.082Z,953.83
2019-01-02T08:46:37.157Z,953.85
2019-01-02T08:47:45.305Z,953.84
2019-01-02T08:48:53.255Z,953.83
2019-01-02T08:50:02.164Z,953.83
2019-01-02T08:51:09.366Z,953.82
2019-01-02T08:52:17.420Z,953.83
2019-01-02T08:53:25.578Z,953.85
2019-01-02T08:54:33.553Z,953.83
2019-01-02T08:55:41.593Z,953.86
2019-01-02T08:56:49.653Z,953.83
2019-01-02T08:57:57.793Z,953.90
2019-01-02T08:59:05.788Z,953.86
2019-01-02T09:00:13.820Z,953.95
2019-01-02T09:01:21.862Z,953.84
2019-01-02T09:02:29.930Z,953.92
2019-01-02T09:03:38.087Z,953.93
2019-01-02T09:04:46.043Z,953.99
2019-01-02T09:05:54.097Z,953.98
2019-01-02T09:07:02.142Z,954.03
2019-01-02T09:08:10.203Z,954.08
2019-01-02T09:09:18.361Z,954.05
2019-01-02T09:10:26.305Z,954.09
2019-01-02T09:11:34.369Z,954.10
2019-01-02T09:12:42.432Z,954.06
2019-01-02T09:13:50.467Z,954.01
2019-01-02T09:14:58.625Z,953.99
2019-01-02T09:16:06.606Z,953.87
2019-01-02T09:17:14.658Z,953.89
2019-01-02T09:18:22.710Z,953.98
2019-01-02T09:19:30.885Z,953.90
2019-01-02T09:20:38.926Z,953.99
2019-01-02T09:21:46.884Z,954.00
2019-01-02T09:22:54.921Z,953.98
2019-01-02T09:24:03.022Z,954.02
2019-01-02T09:25:11.015Z,953.94
2019-01-02T09:26:19.206Z,954.04
2019-01-02T09:27:27.152Z,954.09
2019-01-02T09:28:35.217Z,954.12
2019-01-02T09:29:43.270Z,954.11
2019-01-02T09:30:51.307Z,954.02
2019-01-02T09:31:59.620Z,954.04
2019-01-02T09:33:07.418Z,954.00
2019-01-02T09:34:15.483Z,953.92
2019-01-02T09:35:23.642Z,953.99
2019-01-02T09:36:31.607Z,953.97
2019-01-02T09:37:39.743Z,954.08
2019-01-02T09:38:47.738Z,954.09
2019-01-02T09:39:55.776Z,954.11
2019-01-02T09:41:03.816Z,954.15
2019-01-02T09:42:11.860Z,954.16
2019-01-02T09:43:24.478Z,954.09
2019-01-02T09:44:27.976Z,954.09
2019-01-02T09:45:36.034Z,954.07
2019-01-02T09:46:44.090Z,954.16
2019-01-02T09:47:52.273Z,954.15
2019-01-02T09:49:00.218Z,954.13
2019-01-02T09:50:08.287Z,954.14
2019-01-02T09:51:16.425Z,954.08
2019-01-02T09:52:24.382Z,954.10
2019-01-02T09:53:32.424Z,954.10
2019-01-02T09:54:40.484Z,954.12
2019-01-02T09:55:48.534Z,954.14
2019-01-02T09:56:56.643Z,954.11
2019-01-02T09:58:04.748Z,954.13
2019-01-02T09:59:12.708Z,954.14
2019-01-02T10:00:20.879Z,954.11
2019-01-02T10:01:28.826Z,954.13
2019-01-02T10:02:36.886Z,954.16
2019-01-02T10:03:45.032Z,954.24
2019-01-02T10:04:52.988Z,954.19
2019-01-02T10:06:01.043Z,954.23
2019-01-02T10:07:09.190Z,954.20
2019-01-02T10:08:17.146Z,954.19
2019-01-02T10:09:25.309Z,954.22
2019-01-02T10:10:33.265Z,954.25
2019-01-02T10:11:41.320Z,954.23
2019-01-02T10:12:49.390Z,954.21
2019-01-02T10:13:57.437Z,954.22
2019-01-02T10:15:05.581Z,954.20
2019-01-02T10:16:13.546Z,954.24
2019-01-02T10:17:21.603Z,954.23
2019-01-02T10:18:29.652Z,954.27
2019-01-02T10:19:37.722Z,954.27
2019-01-02T10:20:45.871Z,954.20
2019-01-02T10:21:53.836Z,954.21
2019-01-02T10:23:01.987Z,954.17
2019-01-02T10:24:09.940Z,954.23
2019-01-02T10:25:18.003Z,954.22
2019-01-02T10:26:26.149Z,954.25
2019-01-02T10:27:34.120Z,954.21
2019-01-02T10:28:42.168Z,954.29
2019-01-02T10:29:50.218Z,954.34
2019-01-02T10:30:58.296Z,954.21
2019-01-02T10:32:06.456Z,954.25
2019-01-02T10:33:14.402Z,954.22
2019-01-02T10:34:22.451Z,954.11
2019-01-02T10:35:30.495Z,954.13
2019-01-02T10:36:38.557Z,954.12
2019-01-02T10:37:46.761Z,954.08
2019-01-02T10:38:54.672Z,954.08
2019-01-02T10:40:02.723Z,954.16
2019-01-02T10:41:10.776Z,954.14
2019-01-02T10:42:18.844Z,954.10
2019-01-02T10:43:26.997Z,954.04
2019-01-02T10:44:34.963Z,953.96
2019-01-02T10:45:43.017Z,953.98
2019-01-02T10:46:51.043Z,953.98
2019-01-02T10:47:59.233Z,954.00
2019-01-02T10:49:07.185Z,954.02
2019-01-02T10:50:15.244Z,954.03
2019-01-02T10:51:23.299Z,953.94
2019-01-02T10:52:31.452Z,953.93
2019-01-02T10:53:39.411Z,953.97
2019-01-02T10:54:47.482Z,953.94
2019-01-02T10:55:55.524Z,953.95
2019-01-02T10:57:03.573Z,954.06
2019-01-02T10:58:11.736Z,953.97
2019-01-02T10:59:19.712Z,954.00
2019-01-02T11:00:27.757Z,953.98
2019-01-02T11:01:35.818Z,953.99
2019-01-02T11:02:43.860Z,954.01
2019-01-02T11:03:52.008Z,953.97
2019-01-02T11:05:00.021Z,954.01
2019-01-02T11:06:08.036Z,953.97
2019-01-02T11:07:16.091Z,953.94
2019-01-02T11:08:24.233Z,953.93
2019-01-02T11:09:32.254Z,953.96
2019-01-02T11:10:40.272Z,953.96
2019-01-02T11:11:48.320Z,953.90
2019-01-02T11:12:56.377Z,953.93
2019-01-02T11:14:04.533Z,953.89
2019-01-02T11:15:12.491Z,953.89
2019-01-02T11:16:20.538Z,953.90
2019-01-02T11:17:28.608Z,953.85
2019-01-02T11:18:36.684Z,953.84
2019-01-02T11:19:44.812Z,953.76
2019-01-02T11:20:52.780Z,953.74
2019-01-02T11:22:00.832Z,953.76
2019-01-02T11:23:09.019Z,953.72
2019-01-02T11:24:16.949Z,953.72
2019-01-02T11:25:25.094Z,953.73
2019-01-02T11:26:33.058Z,953.74
2019-01-02T11:27:41.165Z,953.70
2019-01-02T11:28:49.171Z,953.76
2019-01-02T11:29:57.344Z,953.72
2019-01-02T11:31:05.305Z,953.67
2019-01-02T11:32:13.346Z,953.64
2019-01-02T11:33:21.402Z,953.68
2019-01-02T11:34:29.469Z,953.64
2019-01-02T11:35:37.618Z,953.68
2019-01-02T11:36:45.580Z,953.65
2019-01-02T11:37:53.742Z,953.74
2019-01-02T11:39:01.688Z,953.71
2019-01-02T11:40:09.848Z,953.69
2019-01-02T11:41:17.810Z,953.74
2019-01-02T11:42:25.877Z,953.78
2019-01-02T11:43:33.927Z,953.78
2019-01-02T11:44:41.974Z,953.73
2019-01-02T11:45:50.141Z,953.68
2019-01-02T11:46:58.103Z,953.69
2019-01-02T11:48:06.146Z,953.65
2019-01-02T11:49:14.217Z,953.71
2019-01-02T11:50:22.277Z,953.68
2019-01-02T11:51:30.751Z,953.60
2019-01-02T11:52:38.396Z,953.59
2019-01-02T11:53:46.534Z,953.55
2019-01-02T11:54:54.511Z,953.53
2019-01-02T11:56:02.572Z,953.51
2019-01-02T11:57:10.701Z,953.51
2019-01-02T11:58:18.677Z,953.52
2019-01-02T11:59:26.731Z,953.52
2019-01-02T12:00:34.789Z,953.51
2019-01-02T12:01:42.863Z,953.54
2019-01-02T12:02:50.985Z,953.45
2019-01-02T12:03:58.965Z,953.46
2019-01-02T12:05:07.076Z,953.48
2019-01-02T12:06:15.068Z,953.48
2019-01-02T12:07:23.166Z,953.47
2019-01-02T12:08:31.177Z,953.51
2019-01-02T12:09:39.503Z,953.50
2019-01-02T12:10:47.325Z,953.53
2019-01-02T12:11:55.403Z,953.58
2019-01-02T12:13:03.468Z,953.59
2019-01-02T12:14:11.461Z,953.51
2019-01-02T12:15:19.549Z,953.52
2019-01-02T12:16:27.620Z,953.50
2019-01-02T12:17:38.585Z,953.53
2019-01-02T12:18:43.710Z,953.52
2019-01-02T12:19:51.774Z,953.54
2019-01-02T12:20:59.820Z,953.47
2019-01-02T12:22:07.870Z,953.47
2019-01-02T12:23:16.028Z,953.46
2019-01-02T12:24:24.020Z,953.47
2019-01-02T12:25:32.165Z,953.47
2019-01-02T12:26:40.125Z,953.41
2019-01-02T12:27:48.175Z,953.48
2019-01-02T12:28:56.346Z,953.53
2019-01-02T12:30:04.292Z,953.51
2019-01-02T12:31:12.358Z,953.49
2019-01-02T12:32:20.417Z,953.51
2019-01-02T12:33:28.468Z,953.50
2019-01-02T12:34:36.628Z,953.50
2019-01-02T12:35:44.602Z,953.36
2019-01-02T12:36:52.635Z,953.32
2019-01-02T12:38:00.688Z,953.36
2019-01-02T12:39:08.796Z,953.32
2019-01-02T12:40:16.915Z,953.40
2019-01-02T12:41:24.958Z,953.40
2019-01-02T12:42:32.939Z,953.43
2019-01-02T12:43:40.993Z,953.45
2019-01-02T12:44:49.054Z,953.43
2019-01-02T12:45:57.215Z,953.41
2019-01-02T12:47:05.154Z,953.36
2019-01-02T12:48:13.219Z,953.34
2019-01-02T12:49:21.275Z,953.35
2019-01-02T12:50:29.344Z,953.27
2019-01-02T12:51:37.494Z,953.36
2019-01-02T12:52:45.448Z,953.40
2019-01-02T12:53:53.528Z,953.33
2019-01-02T12:55:01.579Z,953.31
2019-01-02T12:56:09.633Z,953.37
2019-01-02T12:57:17.795Z,953.39
2019-01-02T12:58:25.754Z,953.37
2019-01-02T12:59:33.832Z,953.37
2019-01-02T13:00:41.883Z,953.34
2019-01-02T13:01:49.936Z,953.28
2019-01-02T13:02:58.090Z,953.30
2019-01-02T13:04:06.035Z,953.30
2019-01-02T13:05:14.126Z,953.21
2019-01-02T13:06:22.174Z,953.28
2019-01-02T13:07:30.320Z,953.29
2019-01-02T13:08:38.284Z,953.28
2019-01-02T13:09:46.334Z,953.34
2019-01-02T13:10:54.390Z,953.25
2019-01-02T13:12:02.453Z,953.29
2019-01-02T13:13:11.035Z,953.30
2019-01-02T13:14:18.567Z,953.28
2019-01-02T13:15:26.640Z,953.26
2019-01-02T13:16:34.689Z,953.19
2019-01-02T13:17:42.845Z,953.23
2019-01-02T13:18:50.781Z,953.21
2019-01-02T13:19:58.853Z,953.19
2019-01-02T13:21:06.910Z,953.26
2019-01-02T13:22:14.979Z,953.17
2019-01-02T13:23:23.172Z,953.19
2019-01-02T13:24:31.092Z,953.14
2019-01-02T13:25:39.155Z,953.14
2019-01-02T13:26:47.194Z,953.11
2019-01-02T13:27:55.363Z,953.10
2019-01-02T13:29:04.738Z,953.10
2019-01-02T13:30:11.390Z,953.06
2019-01-02T13:31:19.427Z,953.07
2019-01-02T13:32:27.492Z,953.08
2019-01-02T13:33:35.557Z,953.02
2019-01-02T13:34:43.702Z,953.06
2019-01-02T13:35:51.653Z,953.05
2019-01-02T13:36:59.715Z,953.09
2019-01-02T13:38:07.786Z,953.05
2019-01-02T13:39:15.844Z,953.03
2019-01-02T13:40:23.985Z,953.00
2019-01-02T13:41:31.956Z,952.99
2019-01-02T13:42:40.092Z,952.96
2019-01-02T13:43:48.057Z,953.00
2019-01-02T13:44:56.139Z,952.96
2019-01-02T13:46:04.279Z,953.00
2019-01-02T13:47:12.248Z,952.96
2019-01-02T13:48:20.286Z,953.01
2019-01-02T13:49:28.357Z,952.95
2019-01-02T13:50:36.399Z,952.95
2019-01-02T13:51:44.585Z,952.94
2019-01-02T13:52:52.525Z,952.94
2019-01-02T13:54:00.563Z,953.01
2019-01-02T13:55:08.635Z,953.03
2019-01-02T13:56:16.709Z,953.01
2019-01-02T13:57:24.847Z,952.99
2019-01-02T13:58:32.822Z,953.03
2019-01-02T13:59:40.856Z,953.02
2019-01-02T14:00:48.927Z,953.13
2019-01-02T14:01:56.982Z,953.14
2019-01-02T14:03:05.152Z,953.22
2019-01-02T14:04:13.102Z,953.17
2019-01-02T14:05:21.132Z,953.19
2019-01-02T14:06:29.210Z,953.20
2019-01-02T14:07:37.328Z,953.26
2019-01-02T14:08:45.331Z,953.27